createdAt,value
2023-02-12T00:13:47.044Z,99.52
2023-02-12T00:28:46.997Z,99.31
2023-02-12T00:43:46.746Z,99.10
2023-02-12T00:58:46.600Z,99.25
2023-02-12T01:13:46.458Z,99.15
2023-02-12T01:28:46.284Z,99.25
2023-02-12T01:43:46.130Z,99.15
2023-02-12T01:58:45.969Z,99.05
2023-02-12T02:13:45.857Z,98.94
2023-02-12T02:28:45.662Z,98.99
2023-02-12T02:43:45.533Z,98.88
2023-02-12T02:58:45.403Z,98.88
2023-02-12T03:13:45.233Z,98.47
2023-02-12T03:28:51.059Z,98.52
2023-02-12T03:43:44.881Z,98.62
2023-02-12T03:58:44.727Z,98.72
2023-02-12T04:13:44.562Z,98.66
2023-02-12T04:28:44.425Z,98.66
2023-02-12T04:43:44.253Z,98.34
2023-02-12T04:58:44.106Z,99.99
2023-02-12T05:13:43.951Z,99.99
2023-02-12T05:28:43.784Z,99.99
2023-02-12T05:43:43.637Z,99.99
2023-02-12T05:58:43.485Z,99.99
2023-02-12T06:13:43.379Z,99.99
2023-02-12T06:28:43.157Z,99.99
2023-02-12T06:43:43.007Z,99.99
2023-02-12T06:58:42.903Z,99.99
2023-02-12T07:13:42.705Z,99.99
2023-02-12T07:28:42.552Z,99.99
2023-02-12T07:43:42.486Z,98.46
2023-02-12T07:58:42.265Z,96.82
2023-02-12T08:13:42.183Z,96.05
2023-02-12T08:28:41.929Z,94.92
2023-02-12T08:43:41.884Z,93.73
2023-02-12T08:58:41.611Z,91.94
2023-02-12T09:13:41.447Z,90.45
2023-02-12T09:28:41.434Z,89.73
2023-02-12T09:43:41.188Z,90.86
2023-02-12T09:58:40.990Z,89.23
2023-02-12T10:13:40.830Z,89.85
2023-02-12T10:28:40.763Z,90.16
2023-02-12T10:43:40.892Z,91.91
2023-02-12T10:58:40.406Z,91.46
2023-02-12T11:13:40.869Z,93.46
2023-02-12T11:28:40.215Z,98.45
2023-02-12T11:43:39.936Z,97.83
2023-02-12T11:58:39.834Z,97.42
2023-02-12T12:13:39.611Z,93.62
2023-02-12T12:28:39.551Z,92.74
2023-02-12T12:43:39.314Z,91.72
2023-02-12T12:58:39.192Z,91.06
2023-02-12T13:13:39.021Z,88.56
2023-02-12T13:28:39.012Z,88.49
2023-02-12T13:43:38.720Z,84.61
2023-02-12T13:58:38.561Z,86.43
2023-02-12T14:13:38.388Z,85.57
2023-02-12T14:28:38.329Z,85.06
2023-02-12T14:43:38.094Z,85.47
2023-02-12T14:58:38.035Z,84.85
2023-02-12T15:13:37.786Z,84.75
2023-02-12T15:28:37.748Z,86.08
2023-02-12T15:43:37.460Z,86.60
2023-02-12T15:58:37.309Z,87.46
2023-02-12T16:13:37.139Z,88.74
2023-02-12T16:28:37.131Z,88.74
2023-02-12T16:43:36.851Z,89.50
2023-02-12T16:58:36.679Z,88.78
2023-02-12T17:13:36.537Z,88.68
2023-02-12T17:28:36.652Z,88.89
2023-02-12T17:43:36.209Z,89.36
2023-02-12T17:58:36.064Z,90.33
2023-02-12T18:13:35.950Z,91.97
2023-02-12T18:28:35.881Z,94.28
2023-02-12T18:43:35.661Z,96.86
2023-02-12T18:58:35.457Z,98.24
2023-02-12T19:13:35.382Z,99.94
2023-02-12T19:28:35.292Z,99.99
2023-02-12T19:43:35.000Z,99.99
2023-02-12T19:58:34.947Z,99.99
2023-02-12T20:13:34.692Z,99.99
2023-02-12T20:28:34.745Z,99.99
2023-02-12T20:43:34.393Z,99.99
2023-02-12T20:58:34.273Z,99.99
2023-02-12T21:13:34.105Z,99.99
2023-02-12T21:28:34.083Z,99.99
2023-02-12T21:43:33.784Z,99.99
2023-02-12T21:58:33.619Z,99.99
2023-02-12T22:13:33.468Z,99.99
2023-02-12T22:28:33.354Z,99.99
2023-02-12T22:43:33.167Z,99.99
2023-02-12T22:58:33.089Z,99.99
2023-02-12T23:13:32.862Z,99.99
2023-02-12T23:28:32.792Z,99.99
2023-02-12T23:43:32.589Z,99.99
2023-02-12T23:58:32.497Z,99.99
